Terminal Aerodrome Forecast
Issued by NWS

Home | Current Version | Previous Version | Text Only | Print | Product List | Glossary On
Versions: 1 2 3 4 5 6 7 8 9 10 11 12 13 14 15 16
000
FTUS46 KMFR 241700
TAFLMT
TAF
KLMT 241720Z 2418/2518 24012G20KT P6SM -SHRA OVC050
     FM250400 VRB03KT P6SM VCSH OVC050
     FM250900 VRB03KT P6SM -SHRA OVC040=

USA.gov is the U.S. government's official web portal to all federal, state and local government web resources and services.